sensor_id;sensor_type;location;lat;lon;timestamp;P1;durP1;ratioP1;P2;durP2;ratioP2
60730;SDS011;46580;52.114;11.674;2023-05-10T00:02:01;4.33;;;2.63;;
60730;SDS011;46580;52.114;11.674;2023-05-10T00:04:26;3.87;;;2.77;;
60730;SDS011;46580;52.114;11.674;2023-05-10T00:07:00;3.13;;;2.53;;
60730;SDS011;46580;52.114;11.674;2023-05-10T00:09:25;4.83;;;3.20;;
60730;SDS011;46580;52.114;11.674;2023-05-10T00:11:51;4.00;;;3.10;;
60730;SDS011;46580;52.114;11.674;2023-05-10T00:14:16;4.70;;;2.97;;
60730;SDS011;46580;52.114;11.674;2023-05-10T00:16:44;5.87;;;2.90;;
60730;SDS011;46580;52.114;11.674;2023-05-10T00:19:10;3.07;;;2.63;;
60730;SDS011;46580;52.114;11.674;2023-05-10T00:21:43;2.73;;;2.47;;
60730;SDS011;46580;52.114;11.674;2023-05-10T00:24:08;4.23;;;2.80;;
60730;SDS011;46580;52.114;11.674;2023-05-10T00:26:41;4.70;;;2.90;;
60730;SDS011;46580;52.114;11.674;2023-05-10T00:29:07;3.23;;;2.83;;
60730;SDS011;46580;52.114;11.674;2023-05-10T00:31:32;6.90;;;2.83;;
60730;SDS011;46580;52.114;11.674;2023-05-10T00:34:01;4.17;;;2.80;;
60730;SDS011;46580;52.114;11.674;2023-05-10T00:36:29;4.67;;;3.03;;
60730;SDS011;46580;52.114;11.674;2023-05-10T00:38:57;3.50;;;2.90;;
60730;SDS011;46580;52.114;11.674;2023-05-10T00:41:22;4.13;;;3.10;;
60730;SDS011;46580;52.114;11.674;2023-05-10T00:43:58;5.47;;;3.17;;
60730;SDS011;46580;52.114;11.674;2023-05-10T00:46:23;5.03;;;3.07;;
60730;SDS011;46580;52.114;11.674;2023-05-10T00:48:50;4.60;;;3.00;;
60730;SDS011;46580;52.114;11.674;2023-05-10T00:51:16;5.07;;;3.40;;
60730;SDS011;46580;52.114;11.674;2023-05-10T00:53:45;6.23;;;3.10;;
60730;SDS011;46580;52.114;11.674;2023-05-10T00:56:13;4.57;;;3.10;;
60730;SDS011;46580;52.114;11.674;2023-05-10T00:58:41;3.80;;;3.00;;
60730;SDS011;46580;52.114;11.674;2023-05-10T01:01:10;3.43;;;2.70;;
60730;SDS011;46580;52.114;11.674;2023-05-10T01:03:36;4.03;;;2.93;;
60730;SDS011;46580;52.114;11.674;2023-05-10T01:06:02;3.53;;;2.77;;
60730;SDS011;46580;52.114;11.674;2023-05-10T01:08:30;5.57;;;3.00;;
60730;SDS011;46580;52.114;11.674;2023-05-10T01:10:55;5.80;;;2.80;;
60730;SDS011;46580;52.114;11.674;2023-05-10T01:13:39;4.93;;;2.87;;
60730;SDS011;46580;52.114;11.674;2023-05-10T01:16:17;3.47;;;2.80;;
60730;SDS011;46580;52.114;11.674;2023-05-10T01:18:43;4.73;;;3.10;;
60730;SDS011;46580;52.114;11.674;2023-05-10T01:26:34;3.83;;;2.90;;
60730;SDS011;46580;52.114;11.674;2023-05-10T01:35:09;4.13;;;2.80;;
60730;SDS011;46580;52.114;11.674;2023-05-10T01:40:48;3.23;;;2.70;;
60730;SDS011;46580;52.114;11.674;2023-05-10T01:43:21;3.10;;;2.80;;
60730;SDS011;46580;52.114;11.674;2023-05-10T01:45:56;4.70;;;3.40;;
60730;SDS011;46580;52.114;11.674;2023-05-10T01:48:29;3.70;;;2.97;;
60730;SDS011;46580;52.114;11.674;2023-05-10T01:50:56;4.03;;;3.40;;
60730;SDS011;46580;52.114;11.674;2023-05-10T01:53:23;4.57;;;3.17;;
60730;SDS011;46580;52.114;11.674;2023-05-10T01:55:50;5.73;;;3.17;;
60730;SDS011;46580;52.114;11.674;2023-05-10T01:58:22;4.20;;;3.17;;
60730;SDS011;46580;52.114;11.674;2023-05-10T02:01:03;4.03;;;2.83;;
60730;SDS011;46580;52.114;11.674;2023-05-10T02:03:30;3.80;;;3.03;;
60730;SDS011;46580;52.114;11.674;2023-05-10T02:05:57;4.30;;;2.97;;
60730;SDS011;46580;52.114;11.674;2023-05-10T02:08:23;5.13;;;3.30;;
60730;SDS011;46580;52.114;11.674;2023-05-10T02:10:54;5.67;;;2.90;;
60730;SDS011;46580;52.114;11.674;2023-05-10T02:13:21;4.27;;;3.10;;
60730;SDS011;46580;52.114;11.674;2023-05-10T02:15:48;5.90;;;3.07;;
60730;SDS011;46580;52.114;11.674;2023-05-10T02:18:16;4.50;;;3.20;;
60730;SDS011;46580;52.114;11.674;2023-05-10T02:20:43;2.80;;;2.40;;
60730;SDS011;46580;52.114;11.674;2023-05-10T02:23:11;3.53;;;3.10;;
60730;SDS011;46580;52.114;11.674;2023-05-10T02:25:38;5.13;;;2.97;;
60730;SDS011;46580;52.114;11.674;2023-05-10T02:28:05;3.73;;;3.00;;
60730;SDS011;46580;52.114;11.674;2023-05-10T02:30:34;4.23;;;2.73;;
60730;SDS011;46580;52.114;11.674;2023-05-10T02:33:01;5.17;;;3.13;;
60730;SDS011;46580;52.114;11.674;2023-05-10T02:35:31;5.63;;;3.30;;
60730;SDS011;46580;52.114;11.674;2023-05-10T02:37:58;6.30;;;3.33;;
60730;SDS011;46580;52.114;11.674;2023-05-10T02:40:25;4.33;;;3.40;;
60730;SDS011;46580;52.114;11.674;2023-05-10T02:42:52;3.90;;;3.13;;
60730;SDS011;46580;52.114;11.674;2023-05-10T02:45:20;6.07;;;3.27;;
60730;SDS011;46580;52.114;11.674;2023-05-10T02:47:49;4.30;;;3.50;;
60730;SDS011;46580;52.114;11.674;2023-05-10T02:50:15;4.00;;;3.13;;
60730;SDS011;46580;52.114;11.674;2023-05-10T02:52:42;3.80;;;3.40;;
60730;SDS011;46580;52.114;11.674;2023-05-10T02:55:12;4.20;;;3.13;;
60730;SDS011;46580;52.114;11.674;2023-05-10T02:57:41;4.43;;;3.30;;
60730;SDS011;46580;52.114;11.674;2023-05-10T03:00:11;4.33;;;3.30;;
60730;SDS011;46580;52.114;11.674;2023-05-10T03:02:37;4.33;;;3.07;;
60730;SDS011;46580;52.114;11.674;2023-05-10T03:42:48;4.60;;;3.20;;
60730;SDS011;46580;52.114;11.674;2023-05-10T06:41:17;4.50;;;2.83;;
60730;SDS011;46580;52.114;11.674;2023-05-10T06:43:45;5.10;;;2.90;;
60730;SDS011;46580;52.114;11.674;2023-05-10T06:46:16;4.87;;;2.83;;
60730;SDS011;46580;52.114;11.674;2023-05-10T06:48:45;7.27;;;2.73;;
60730;SDS011;46580;52.114;11.674;2023-05-10T06:51:10;4.13;;;2.73;;
60730;SDS011;46580;52.114;11.674;2023-05-10T07:07:10;3.10;;;2.47;;
60730;SDS011;46580;52.114;11.674;2023-05-10T07:09:37;3.47;;;2.80;;
60730;SDS011;46580;52.114;11.674;2023-05-10T07:12:03;7.17;;;2.77;;
60730;SDS011;46580;52.114;11.674;2023-05-10T07:14:28;2.77;;;2.40;;
60730;SDS011;46580;52.114;11.674;2023-05-10T07:16:54;4.77;;;3.03;;
60730;SDS011;46580;52.114;11.674;2023-05-10T07:19:19;6.50;;;2.73;;
60730;SDS011;46580;52.114;11.674;2023-05-10T07:21:45;5.60;;;2.60;;
60730;SDS011;46580;52.114;11.674;2023-05-10T07:24:10;5.83;;;2.77;;
60730;SDS011;46580;52.114;11.674;2023-05-10T07:26:38;4.17;;;3.10;;
60730;SDS011;46580;52.114;11.674;2023-05-10T07:29:11;3.97;;;2.90;;
60730;SDS011;46580;52.114;11.674;2023-05-10T07:31:38;6.40;;;3.30;;
60730;SDS011;46580;52.114;11.674;2023-05-10T07:34:06;4.43;;;2.77;;
60730;SDS011;46580;52.114;11.674;2023-05-10T07:36:31;7.80;;;2.80;;
60730;SDS011;46580;52.114;11.674;2023-05-10T07:39:01;4.17;;;2.93;;
60730;SDS011;46580;52.114;11.674;2023-05-10T07:41:30;4.47;;;3.07;;
60730;SDS011;46580;52.114;11.674;2023-05-10T07:43:55;4.43;;;2.83;;
60730;SDS011;46580;52.114;11.674;2023-05-10T07:46:23;7.13;;;3.13;;
60730;SDS011;46580;52.114;11.674;2023-05-10T07:48:51;8.50;;;3.17;;
60730;SDS011;46580;52.114;11.674;2023-05-10T07:51:20;5.07;;;2.87;;
60730;SDS011;46580;52.114;11.674;2023-05-10T07:53:46;3.63;;;3.00;;
60730;SDS011;46580;52.114;11.674;2023-05-10T07:56:21;4.93;;;3.43;;
60730;SDS011;46580;52.114;11.674;2023-05-10T07:58:52;5.37;;;3.60;;
60730;SDS011;46580;52.114;11.674;2023-05-10T08:01:18;6.60;;;3.30;;
60730;SDS011;46580;52.114;11.674;2023-05-10T08:03:43;4.07;;;2.77;;
60730;SDS011;46580;52.114;11.674;2023-05-10T08:06:09;4.97;;;3.10;;
60730;SDS011;46580;52.114;11.674;2023-05-10T08:08:36;3.87;;;2.87;;
60730;SDS011;46580;52.114;11.674;2023-05-10T08:11:03;4.70;;;3.63;;
60730;SDS011;46580;52.114;11.674;2023-05-10T08:13:28;3.57;;;2.77;;
60730;SDS011;46580;52.114;11.674;2023-05-10T08:15:57;6.80;;;3.10;;
60730;SDS011;46580;52.114;11.674;2023-05-10T08:18:25;5.10;;;3.33;;
60730;SDS011;46580;52.114;11.674;2023-05-10T08:20:50;6.53;;;3.70;;
60730;SDS011;46580;52.114;11.674;2023-05-10T08:23:16;5.37;;;3.83;;
60730;SDS011;46580;52.114;11.674;2023-05-10T08:25:43;3.97;;;3.00;;
60730;SDS011;46580;52.114;11.674;2023-05-10T08:28:09;6.13;;;3.67;;
60730;SDS011;46580;52.114;11.674;2023-05-10T08:30:37;5.53;;;3.60;;
60730;SDS011;46580;52.114;11.674;2023-05-10T08:33:02;5.90;;;3.27;;
60730;SDS011;46580;52.114;11.674;2023-05-10T08:35:28;6.47;;;3.83;;
60730;SDS011;46580;52.114;11.674;2023-05-10T08:37:53;6.73;;;3.83;;
60730;SDS011;46580;52.114;11.674;2023-05-10T08:40:19;5.10;;;3.27;;
60730;SDS011;46580;52.114;11.674;2023-05-10T08:43:00;4.90;;;3.63;;
60730;SDS011;46580;52.114;11.674;2023-05-10T08:45:33;7.43;;;3.60;;
60730;SDS011;46580;52.114;11.674;2023-05-10T08:48:02;9.47;;;3.50;;
60730;SDS011;46580;52.114;11.674;2023-05-10T08:50:30;5.03;;;3.97;;
60730;SDS011;46580;52.114;11.674;2023-05-10T08:52:57;7.30;;;3.87;;
60730;SDS011;46580;52.114;11.674;2023-05-10T08:55:26;6.63;;;3.57;;
60730;SDS011;46580;52.114;11.674;2023-05-10T08:57:54;6.73;;;3.63;;
60730;SDS011;46580;52.114;11.674;2023-05-10T09:00:20;4.07;;;3.37;;
60730;SDS011;46580;52.114;11.674;2023-05-10T09:02:50;5.60;;;3.80;;
60730;SDS011;46580;52.114;11.674;2023-05-10T09:05:16;6.77;;;3.60;;
60730;SDS011;46580;52.114;11.674;2023-05-10T09:07:42;5.40;;;3.67;;
60730;SDS011;46580;52.114;11.674;2023-05-10T09:10:11;4.47;;;3.50;;
60730;SDS011;46580;52.114;11.674;2023-05-10T09:12:36;7.33;;;3.53;;
60730;SDS011;46580;52.114;11.674;2023-05-10T09:15:10;6.47;;;4.00;;
60730;SDS011;46580;52.114;11.674;2023-05-10T09:17:36;5.70;;;3.90;;
60730;SDS011;46580;52.114;11.674;2023-05-10T09:20:03;5.80;;;4.03;;
60730;SDS011;46580;52.114;11.674;2023-05-10T09:22:38;6.93;;;4.27;;
60730;SDS011;46580;52.114;11.674;2023-05-10T09:25:08;7.90;;;3.90;;
60730;SDS011;46580;52.114;11.674;2023-05-10T09:27:36;5.90;;;3.80;;
60730;SDS011;46580;52.114;11.674;2023-05-10T09:30:03;5.97;;;4.27;;
60730;SDS011;46580;52.114;11.674;2023-05-10T09:32:44;6.23;;;3.80;;
60730;SDS011;46580;52.114;11.674;2023-05-10T09:35:12;8.70;;;4.00;;
60730;SDS011;46580;52.114;11.674;2023-05-10T09:37:42;7.77;;;3.83;;
60730;SDS011;46580;52.114;11.674;2023-05-10T09:40:11;8.13;;;4.07;;
60730;SDS011;46580;52.114;11.674;2023-05-10T09:42:38;7.07;;;4.07;;
60730;SDS011;46580;52.114;11.674;2023-05-10T09:45:04;6.40;;;4.33;;
60730;SDS011;46580;52.114;11.674;2023-05-10T09:47:36;6.20;;;4.40;;
60730;SDS011;46580;52.114;11.674;2023-05-10T09:50:02;8.50;;;4.63;;
60730;SDS011;46580;52.114;11.674;2023-05-10T09:52:48;5.43;;;4.17;;
60730;SDS011;46580;52.114;11.674;2023-05-10T09:55:25;6.57;;;4.40;;
60730;SDS011;46580;52.114;11.674;2023-05-10T09:58:05;9.13;;;4.37;;
60730;SDS011;46580;52.114;11.674;2023-05-10T10:00:38;7.67;;;4.77;;
60730;SDS011;46580;52.114;11.674;2023-05-10T10:03:06;6.07;;;4.83;;
60730;SDS011;46580;52.114;11.674;2023-05-10T10:05:32;6.00;;;4.90;;
60730;SDS011;46580;52.114;11.674;2023-05-10T10:08:00;6.67;;;4.43;;
60730;SDS011;46580;52.114;11.674;2023-05-10T10:48:50;11.77;;;5.83;;
60730;SDS011;46580;52.114;11.674;2023-05-10T10:51:38;8.57;;;5.40;;
60730;SDS011;46580;52.114;11.674;2023-05-10T10:54:10;12.47;;;5.40;;
60730;SDS011;46580;52.114;11.674;2023-05-10T10:56:36;8.30;;;5.57;;
60730;SDS011;46580;52.114;11.674;2023-05-10T10:59:01;12.00;;;5.80;;
60730;SDS011;46580;52.114;11.674;2023-05-10T11:01:32;8.30;;;5.60;;
60730;SDS011;46580;52.114;11.674;2023-05-10T11:06:30;8.37;;;6.27;;
60730;SDS011;46580;52.114;11.674;2023-05-10T12:15:16;11.43;;;8.10;;
60730;SDS011;46580;52.114;11.674;2023-05-10T12:17:43;12.10;;;8.07;;
60730;SDS011;46580;52.114;11.674;2023-05-10T12:20:21;12.07;;;8.70;;
60730;SDS011;46580;52.114;11.674;2023-05-10T12:22:53;11.50;;;8.87;;
60730;SDS011;46580;52.114;11.674;2023-05-10T12:25:21;10.70;;;8.97;;
60730;SDS011;46580;52.114;11.674;2023-05-10T12:27:51;12.20;;;8.73;;
60730;SDS011;46580;52.114;11.674;2023-05-10T12:30:27;12.23;;;9.40;;
60730;SDS011;46580;52.114;11.674;2023-05-10T12:35:32;12.07;;;9.57;;
60730;SDS011;46580;52.114;11.674;2023-05-10T12:37:58;14.00;;;10.17;;
60730;SDS011;46580;52.114;11.674;2023-05-10T12:40:26;12.10;;;9.70;;
60730;SDS011;46580;52.114;11.674;2023-05-10T12:42:52;12.27;;;9.30;;
60730;SDS011;46580;52.114;11.674;2023-05-10T12:45:26;13.53;;;9.37;;
60730;SDS011;46580;52.114;11.674;2023-05-10T12:47:52;13.30;;;9.80;;
60730;SDS011;46580;52.114;11.674;2023-05-10T12:50:17;12.50;;;9.43;;
60730;SDS011;46580;52.114;11.674;2023-05-10T12:52:43;13.63;;;9.10;;
60730;SDS011;46580;52.114;11.674;2023-05-10T12:55:16;13.50;;;9.13;;
60730;SDS011;46580;52.114;11.674;2023-05-10T12:57:41;13.57;;;10.20;;
60730;SDS011;46580;52.114;11.674;2023-05-10T13:00:09;12.77;;;10.60;;
60730;SDS011;46580;52.114;11.674;2023-05-10T13:02:35;14.43;;;10.00;;
60730;SDS011;46580;52.114;11.674;2023-05-10T13:05:00;11.23;;;9.97;;
60730;SDS011;46580;52.114;11.674;2023-05-10T13:07:30;12.93;;;9.93;;
60730;SDS011;46580;52.114;11.674;2023-05-10T13:09:56;12.40;;;10.53;;
60730;SDS011;46580;52.114;11.674;2023-05-10T13:12:29;11.37;;;10.17;;
60730;SDS011;46580;52.114;11.674;2023-05-10T13:14:54;16.03;;;10.77;;
60730;SDS011;46580;52.114;11.674;2023-05-10T13:17:22;14.00;;;9.63;;
60730;SDS011;46580;52.114;11.674;2023-05-10T13:19:52;11.93;;;10.13;;
60730;SDS011;46580;52.114;11.674;2023-05-10T13:22:18;12.30;;;10.27;;
60730;SDS011;46580;52.114;11.674;2023-05-10T13:24:43;13.37;;;11.07;;
60730;SDS011;46580;52.114;11.674;2023-05-10T13:27:18;13.40;;;10.13;;
60730;SDS011;46580;52.114;11.674;2023-05-10T13:29:43;8.07;;;6.83;;
60730;SDS011;46580;52.114;11.674;2023-05-10T13:32:08;5.43;;;4.93;;
60730;SDS011;46580;52.114;11.674;2023-05-10T13:34:42;6.63;;;4.97;;
60730;SDS011;46580;52.114;11.674;2023-05-10T13:37:07;4.57;;;3.60;;
60730;SDS011;46580;52.114;11.674;2023-05-10T13:39:40;4.23;;;3.47;;
60730;SDS011;46580;52.114;11.674;2023-05-10T13:42:06;3.40;;;2.77;;
60730;SDS011;46580;52.114;11.674;2023-05-10T13:44:31;3.20;;;2.53;;
60730;SDS011;46580;52.114;11.674;2023-05-10T13:46:58;2.50;;;2.03;;
60730;SDS011;46580;52.114;11.674;2023-05-10T13:49:26;2.67;;;2.20;;
60730;SDS011;46580;52.114;11.674;2023-05-10T13:51:52;2.60;;;1.90;;
60730;SDS011;46580;52.114;11.674;2023-05-10T13:54:17;2.27;;;1.80;;
60730;SDS011;46580;52.114;11.674;2023-05-10T13:56:55;2.03;;;1.70;;
60730;SDS011;46580;52.114;11.674;2023-05-10T13:59:20;1.77;;;1.57;;
60730;SDS011;46580;52.114;11.674;2023-05-10T14:01:46;1.83;;;1.60;;
60730;SDS011;46580;52.114;11.674;2023-05-10T14:04:15;1.30;;;1.20;;
60730;SDS011;46580;52.114;11.674;2023-05-10T14:06:41;1.53;;;1.07;;
60730;SDS011;46580;52.114;11.674;2023-05-10T14:09:14;1.70;;;1.60;;
60730;SDS011;46580;52.114;11.674;2023-05-10T14:11:39;1.80;;;1.60;;
60730;SDS011;46580;52.114;11.674;2023-05-10T14:14:08;3.03;;;1.60;;
60730;SDS011;46580;52.114;11.674;2023-05-10T14:16:36;1.40;;;1.20;;
60730;SDS011;46580;52.114;11.674;2023-05-10T14:19:04;2.20;;;1.53;;
60730;SDS011;46580;52.114;11.674;2023-05-10T14:21:29;1.50;;;1.30;;
60730;SDS011;46580;52.114;11.674;2023-05-10T14:23:58;1.93;;;1.70;;
60730;SDS011;46580;52.114;11.674;2023-05-10T14:26:26;2.07;;;1.87;;
60730;SDS011;46580;52.114;11.674;2023-05-10T14:28:52;2.17;;;1.80;;
60730;SDS011;46580;52.114;11.674;2023-05-10T14:31:20;2.00;;;1.57;;
60730;SDS011;46580;52.114;11.674;2023-05-10T14:33:55;2.07;;;1.87;;
60730;SDS011;46580;52.114;11.674;2023-05-10T14:36:20;2.13;;;1.90;;
60730;SDS011;46580;52.114;11.674;2023-05-10T14:38:46;2.40;;;2.20;;
60730;SDS011;46580;52.114;11.674;2023-05-10T14:41:11;3.63;;;2.40;;
60730;SDS011;46580;52.114;11.674;2023-05-10T14:43:39;2.40;;;2.20;;
60730;SDS011;46580;52.114;11.674;2023-05-10T14:46:07;2.30;;;2.00;;
60730;SDS011;46580;52.114;11.674;2023-05-10T14:48:36;2.50;;;2.30;;
60730;SDS011;46580;52.114;11.674;2023-05-10T14:51:07;2.53;;;2.27;;
60730;SDS011;46580;52.114;11.674;2023-05-10T14:53:33;2.70;;;2.50;;
60730;SDS011;46580;52.114;11.674;2023-05-10T14:55:58;2.63;;;2.43;;
60730;SDS011;46580;52.114;11.674;2023-05-10T14:58:28;4.30;;;2.20;;
60730;SDS011;46580;52.114;11.674;2023-05-10T15:00:59;3.37;;;2.17;;
60730;SDS011;46580;52.114;11.674;2023-05-10T15:03:25;3.77;;;2.23;;
60730;SDS011;46580;52.114;11.674;2023-05-10T15:05:50;2.47;;;2.07;;
60730;SDS011;46580;52.114;11.674;2023-05-10T15:08:17;2.53;;;2.07;;
60730;SDS011;46580;52.114;11.674;2023-05-10T15:10:50;2.60;;;2.40;;
60730;SDS011;46580;52.114;11.674;2023-05-10T15:13:18;2.97;;;2.50;;
60730;SDS011;46580;52.114;11.674;2023-05-10T15:15:43;3.83;;;2.67;;
60730;SDS011;46580;52.114;11.674;2023-05-10T15:18:16;2.40;;;2.20;;
60730;SDS011;46580;52.114;11.674;2023-05-10T15:20:42;2.87;;;2.07;;
60730;SDS011;46580;52.114;11.674;2023-05-10T15:23:10;2.53;;;2.27;;
60730;SDS011;46580;52.114;11.674;2023-05-10T15:25:35;2.50;;;2.27;;
60730;SDS011;46580;52.114;11.674;2023-05-10T15:28:02;2.50;;;2.10;;
60730;SDS011;46580;52.114;11.674;2023-05-10T15:30:29;3.40;;;2.33;;
60730;SDS011;46580;52.114;11.674;2023-05-10T15:33:02;2.20;;;2.00;;
60730;SDS011;46580;52.114;11.674;2023-05-10T15:35:27;4.30;;;2.70;;
60730;SDS011;46580;52.114;11.674;2023-05-10T15:37:53;2.40;;;2.20;;
60730;SDS011;46580;52.114;11.674;2023-05-10T15:40:21;4.23;;;2.37;;
60730;SDS011;46580;52.114;11.674;2023-05-10T15:42:54;2.53;;;2.33;;
60730;SDS011;46580;52.114;11.674;2023-05-10T15:45:19;2.90;;;2.23;;
60730;SDS011;46580;52.114;11.674;2023-05-10T15:47:45;2.73;;;2.03;;
60730;SDS011;46580;52.114;11.674;2023-05-10T15:50:13;3.47;;;2.40;;
60730;SDS011;46580;52.114;11.674;2023-05-10T15:52:43;2.23;;;2.03;;
60730;SDS011;46580;52.114;11.674;2023-05-10T15:55:08;3.80;;;2.47;;
60730;SDS011;46580;52.114;11.674;2023-05-10T15:57:40;3.37;;;2.40;;
60730;SDS011;46580;52.114;11.674;2023-05-10T16:00:09;2.73;;;2.30;;
60730;SDS011;46580;52.114;11.674;2023-05-10T16:02:36;4.37;;;2.30;;
60730;SDS011;46580;52.114;11.674;2023-05-10T16:05:02;2.93;;;2.63;;
60730;SDS011;46580;52.114;11.674;2023-05-10T16:07:31;2.67;;;2.27;;
60730;SDS011;46580;52.114;11.674;2023-05-10T16:09:57;2.60;;;2.33;;
60730;SDS011;46580;52.114;11.674;2023-05-10T16:12:28;5.27;;;2.53;;
60730;SDS011;46580;52.114;11.674;2023-05-10T16:14:54;2.67;;;2.23;;
60730;SDS011;46580;52.114;11.674;2023-05-10T16:17:23;2.57;;;2.37;;
60730;SDS011;46580;52.114;11.674;2023-05-10T16:19:49;3.43;;;3.10;;
60730;SDS011;46580;52.114;11.674;2023-05-10T16:22:23;3.93;;;3.27;;
60730;SDS011;46580;52.114;11.674;2023-05-10T16:24:52;3.90;;;2.83;;
60730;SDS011;46580;52.114;11.674;2023-05-10T16:27:18;3.73;;;3.40;;
60730;SDS011;46580;52.114;11.674;2023-05-10T16:29:44;3.63;;;3.30;;
60730;SDS011;46580;52.114;11.674;2023-05-10T16:32:11;3.87;;;3.33;;
60730;SDS011;46580;52.114;11.674;2023-05-10T16:34:37;3.90;;;3.50;;
60730;SDS011;46580;52.114;11.674;2023-05-10T16:37:02;4.47;;;3.93;;
60730;SDS011;46580;52.114;11.674;2023-05-10T16:39:28;4.83;;;3.43;;
60730;SDS011;46580;52.114;11.674;2023-05-10T16:41:55;5.07;;;3.70;;
60730;SDS011;46580;52.114;11.674;2023-05-10T16:44:21;6.63;;;3.73;;
60730;SDS011;46580;52.114;11.674;2023-05-10T16:46:46;5.70;;;4.43;;
60730;SDS011;46580;52.114;11.674;2023-05-10T16:49:14;5.17;;;4.00;;
60730;SDS011;46580;52.114;11.674;2023-05-10T16:51:39;5.57;;;4.67;;
60730;SDS011;46580;52.114;11.674;2023-05-10T16:54:08;5.13;;;4.47;;
60730;SDS011;46580;52.114;11.674;2023-05-10T16:56:35;4.57;;;4.00;;
60730;SDS011;46580;52.114;11.674;2023-05-10T16:59:03;4.07;;;3.67;;
60730;SDS011;46580;52.114;11.674;2023-05-10T17:01:29;5.43;;;4.10;;
60730;SDS011;46580;52.114;11.674;2023-05-10T17:04:12;5.10;;;4.60;;
60730;SDS011;46580;52.114;11.674;2023-05-10T17:06:38;6.53;;;5.00;;
60730;SDS011;46580;52.114;11.674;2023-05-10T17:09:04;7.90;;;5.80;;
60730;SDS011;46580;52.114;11.674;2023-05-10T17:11:30;6.60;;;5.60;;
60730;SDS011;46580;52.114;11.674;2023-05-10T17:13:57;7.93;;;5.73;;
60730;SDS011;46580;52.114;11.674;2023-05-10T17:16:25;7.10;;;6.13;;
60730;SDS011;46580;52.114;11.674;2023-05-10T17:18:51;7.93;;;5.60;;
60730;SDS011;46580;52.114;11.674;2023-05-10T17:21:19;8.70;;;5.80;;
60730;SDS011;46580;52.114;11.674;2023-05-10T17:23:46;8.07;;;6.10;;
60730;SDS011;46580;52.114;11.674;2023-05-10T17:50:44;8.80;;;6.47;;
60730;SDS011;46580;52.114;11.674;2023-05-10T18:00:06;9.63;;;6.03;;
60730;SDS011;46580;52.114;11.674;2023-05-10T18:02:36;8.10;;;6.67;;
60730;SDS011;46580;52.114;11.674;2023-05-10T18:05:02;8.00;;;6.63;;
60730;SDS011;46580;52.114;11.674;2023-05-10T18:07:28;7.43;;;6.67;;
60730;SDS011;46580;52.114;11.674;2023-05-10T18:09:57;8.53;;;6.33;;
60730;SDS011;46580;52.114;11.674;2023-05-10T18:12:23;6.00;;;5.40;;
60730;SDS011;46580;52.114;11.674;2023-05-10T18:14:51;6.40;;;5.47;;
60730;SDS011;46580;52.114;11.674;2023-05-10T18:17:20;5.90;;;5.30;;
60730;SDS011;46580;52.114;11.674;2023-05-10T18:19:48;5.03;;;4.57;;
60730;SDS011;46580;52.114;11.674;2023-05-10T18:22:13;5.60;;;4.83;;
60730;SDS011;46580;52.114;11.674;2023-05-10T18:24:46;6.97;;;5.00;;
60730;SDS011;46580;52.114;11.674;2023-05-10T20:29:09;3.00;;;2.00;;
60730;SDS011;46580;52.114;11.674;2023-05-10T20:32:39;2.47;;;1.83;;
60730;SDS011;46580;52.114;11.674;2023-05-10T20:36:04;2.17;;;1.97;;
